Time;durP1;ratioP1;P1;durP2;ratioP2;P2;SDS_P1;SDS_P2;PMS_P1;PMS_P2;Temp;Humidity;BMP_temperature;BMP_pressure;BME280_temperature;BME280_humidity;BME280_pressure;Samples;Min_cycle;Max_cycle;Signal;HPM_P1;HPM_P2
2023/09/01 00:00:32;;;;;;;8.15;3.08;;;;;;;22.84;58.17;98970.88;2078923;28;20064;-49
2023/09/01 00:01:33;;;;;;;5.38;2.33;;;;;;;22.96;57.55;98965.63;2076003;28;20060;-54
2023/09/01 00:02:35;;;;;;;8.70;3.08;;;;;;;22.85;58.18;98966.31;2078907;28;20125;-52
2023/09/01 00:03:36;;;;;;;10.98;3.72;;;;;;;22.82;58.08;98970.31;2078447;28;20529;-54
2023/09/01 00:04:39;;;;;;;11.43;3.42;;;;;;;22.87;58.17;98970.47;2075858;28;20055;-52
2023/09/01 00:05:39;;;;;;;6.47;2.15;;;;;;;22.90;58.07;98967.31;2077114;28;20045;-48
2023/09/01 00:06:42;;;;;;;7.93;2.35;;;;;;;23.07;57.15;98966.75;2078666;28;20068;-54
2023/09/01 00:07:43;;;;;;;7.70;2.78;;;;;;;23.09;57.25;98972.75;2077049;28;20136;-52
2023/09/01 00:08:45;;;;;;;6.85;2.63;;;;;;;23.10;57.40;98969.00;2076904;28;20789;-53
2023/09/01 00:09:50;;;;;;;6.35;2.95;;;;;;;23.15;57.02;98977.25;2078699;28;20054;-55
2023/09/01 00:10:53;;;;;;;5.72;3.10;;;;;;;23.13;57.36;98980.19;2076589;28;20537;-55
2023/09/01 00:11:54;;;;;;;6.95;2.28;;;;;;;23.19;56.88;98978.47;2075692;28;20053;-52
2023/09/01 00:12:59;;;;;;;8.10;2.22;;;;;;;23.33;56.45;98977.25;2075280;28;20587;-52
2023/09/01 00:14:00;;;;;;;8.52;2.55;;;;;;;23.50;56.45;98977.47;2078065;28;20051;-51
2023/09/01 00:15:03;;;;;;;9.70;3.13;;;;;;;23.56;55.87;98976.56;2077946;28;20067;-54
2023/09/01 00:16:04;;;;;;;6.13;2.10;;;;;;;23.61;56.29;98975.88;2076334;28;20519;-54
2023/09/01 00:17:06;;;;;;;9.00;2.33;;;;;;;23.57;56.03;98972.81;2078455;28;20068;-55
2023/09/01 00:18:07;;;;;;;5.38;1.98;;;;;;;23.48;56.01;98968.75;2076450;28;20080;-52
2023/09/01 00:19:10;;;;;;;3.47;2.15;;;;;;;23.49;56.19;98966.91;2077881;28;20049;-59
2023/09/01 00:20:11;;;;;;;9.40;3.10;;;;;;;23.29;56.96;98973.38;2076527;28;20408;-53
2023/09/01 00:21:13;;;;;;;8.80;2.45;;;;;;;23.23;57.13;98974.25;2077191;28;20136;-54
2023/09/01 00:22:14;;;;;;;8.32;2.60;;;;;;;23.24;56.89;98970.50;2077926;28;20527;-53
2023/09/01 00:23:17;;;;;;;7.68;2.75;;;;;;;23.23;56.90;98968.84;2076016;28;20049;-52
2023/09/01 00:24:17;;;;;;;7.03;2.80;;;;;;;23.19;57.24;98981.19;2075071;28;20738;-51
2023/09/01 00:25:21;;;;;;;6.38;2.50;;;;;;;23.20;57.08;98972.00;2077087;28;20045;-52
2023/09/01 00:26:21;;;;;;;7.28;2.50;;;;;;;23.24;56.88;98984.03;2074701;28;20041;-52
2023/09/01 00:27:23;;;;;;;6.22;2.20;;;;;;;23.35;56.45;98980.59;2076055;28;20053;-49
2023/09/01 00:28:24;;;;;;;11.25;3.25;;;;;;;23.43;56.18;98974.03;2078856;28;20049;-56
2023/09/01 00:29:26;;;;;;;5.55;1.92;;;;;;;23.44;56.24;98983.81;2080739;28;20045;-54
2023/09/01 00:30:29;;;;;;;8.13;2.25;;;;;;;23.47;55.94;98979.81;2076524;28;20049;-54
2023/09/01 00:31:32;;;;;;;6.78;2.78;;;;;;;23.50;55.95;98976.66;2071623;28;20076;-51
2023/09/01 00:32:33;;;;;;;7.25;2.22;;;;;;;23.46;56.29;98978.16;2094479;28;20067;-51
2023/09/01 00:33:35;;;;;;;12.10;2.53;;;;;;;23.44;56.42;98974.88;2086891;28;20090;-54
2023/09/01 00:34:36;;;;;;;5.63;2.20;;;;;;;23.42;55.96;98967.78;2074977;28;20419;-54
2023/09/01 00:35:38;;;;;;;6.03;1.95;;;;;;;23.46;56.15;98967.31;2078562;28;20594;-55
2023/09/01 00:36:40;;;;;;;8.50;3.13;;;;;;;23.50;56.23;98968.53;2078976;28;20048;-53
2023/09/01 00:37:41;;;;;;;8.60;3.38;;;;;;;23.52;55.63;98967.25;2077548;28;20060;-52
2023/09/01 00:38:43;;;;;;;4.00;2.55;;;;;;;23.51;56.21;98970.19;2075696;28;20123;-52
2023/09/01 00:39:44;;;;;;;8.98;2.47;;;;;;;23.50;55.82;98968.53;2080744;28;20056;-51
2023/09/01 00:40:49;;;;;;;7.20;2.80;;;;;;;23.46;55.97;98961.91;2079653;28;20679;-51
2023/09/01 00:41:50;;;;;;;9.27;2.30;;;;;;;23.41;55.85;98971.53;2079614;28;20049;-54
2023/09/01 00:42:52;;;;;;;6.40;2.47;;;;;;;23.39;56.19;98973.66;2078817;28;20165;-52
2023/09/01 00:43:53;;;;;;;6.03;2.40;;;;;;;23.32;56.49;98972.91;2079289;28;20852;-55
2023/09/01 00:44:54;;;;;;;8.70;3.08;;;;;;;23.31;56.58;98976.66;2079503;28;20056;-53
2023/09/01 00:45:56;;;;;;;7.13;2.60;;;;;;;23.30;56.35;98983.13;2077242;28;20049;-52
2023/09/01 00:46:58;;;;;;;12.02;3.38;;;;;;;23.27;56.39;98977.34;2076994;28;20088;-51
2023/09/01 00:47:59;;;;;;;6.75;2.42;;;;;;;23.24;56.92;98981.34;2080187;28;20502;-50
2023/09/01 00:49:01;;;;;;;7.90;2.40;;;;;;;23.29;56.72;98976.06;2080126;28;20114;-49
2023/09/01 00:50:07;;;;;;;6.32;2.90;;;;;;;23.33;56.46;98977.25;2072710;28;20052;-52
2023/09/01 00:51:09;;;;;;;6.88;3.88;;;;;;;23.27;56.21;98975.47;2069710;28;20480;-53
2023/09/01 00:52:10;;;;;;;6.07;2.13;;;;;;;23.24;56.57;98973.22;2076834;28;20049;-51
2023/09/01 00:53:12;;;;;;;7.25;2.20;;;;;;;23.30;56.79;98980.44;2079951;28;20083;-52
2023/09/01 00:54:13;;;;;;;5.93;2.70;;;;;;;23.38;56.05;98972.00;2078723;28;20057;-51
2023/09/01 00:55:15;;;;;;;5.00;2.17;;;;;;;23.44;56.03;98969.44;2080211;28;20111;-50
2023/09/01 00:56:19;;;;;;;4.22;1.85;;;;;;;23.44;56.24;98972.97;2077823;28;20072;-51
2023/09/01 00:57:21;;;;;;;5.43;2.15;;;;;;;23.48;55.69;98974.16;2076940;28;20057;-53
2023/09/01 00:58:22;;;;;;;7.28;2.10;;;;;;;23.49;56.13;98975.00;2076522;28;20118;-51
2023/09/01 00:59:23;;;;;;;7.78;1.98;;;;;;;23.35;56.58;98979.75;2077787;28;20091;-51
2023/09/01 01:00:25;;;;;;;8.23;3.13;;;;;;;23.23;57.18;98978.84;2082313;28;20061;-51
2023/09/01 01:01:26;;;;;;;7.50;2.60;;;;;;;23.17;57.18;98978.69;2080846;28;20164;-50
2023/09/01 01:02:28;;;;;;;5.97;2.13;;;;;;;23.17;57.15;98975.16;2079223;28;20055;-51
2023/09/01 01:03:29;;;;;;;5.97;2.80;;;;;;;23.19;57.34;98975.75;2080951;28;20182;-52
2023/09/01 01:04:31;;;;;;;7.85;3.03;;;;;;;23.21;56.84;98976.38;2079672;28;20045;-53
2023/09/01 01:05:41;;;;;;;4.20;1.73;;;;;;;23.27;56.71;98974.66;2079822;28;20163;-52
2023/09/01 01:06:52;;;;;;;6.22;2.55;;;;;;;23.24;56.57;98980.50;2079074;28;20566;-50
2023/09/01 01:08:05;;;;;;;5.43;2.70;;;;;;;23.19;56.86;98981.19;2079129;28;20142;-52
2023/09/01 01:09:14;;;;;;;7.45;2.22;;;;;;;23.15;57.10;98978.09;2078205;28;20041;-49
2023/09/01 01:10:24;;;;;;;6.63;3.33;;;;;;;23.05;57.58;98980.50;2075822;28;20053;-51
2023/09/01 01:11:32;;;;;;;10.00;3.05;;;;;;;22.96;57.73;98977.25;2076948;28;20064;-52
2023/09/01 01:12:48;;;;;;;8.05;2.63;;;;;;;23.03;57.66;98981.75;2078961;28;20048;-53
2023/09/01 01:13:55;;;;;;;11.10;2.55;;;;;;;23.06;57.34;98982.13;2078189;28;20132;-49
2023/09/01 01:14:59;;;;;;;4.80;2.60;;;;;;;23.09;57.26;98984.38;2082058;28;21298;-49
2023/09/01 01:16:01;;;;;;;9.02;2.65;;;;;;;23.17;56.90;98985.97;2079499;28;20046;-49
2023/09/01 01:17:05;;;;;;;5.68;2.85;;;;;;;23.22;57.01;98986.13;2079257;28;20056;-52
2023/09/01 01:18:13;;;;;;;5.43;2.28;;;;;;;23.23;56.79;98990.50;2079253;28;20102;-49
2023/09/01 01:19:30;;;;;;;5.07;2.70;;;;;;;23.21;57.06;98989.91;2080311;28;20181;-49
2023/09/01 01:20:37;;;;;;;4.70;2.40;;;;;;;23.11;57.27;98990.41;2079472;28;20800;-52
2023/09/01 01:21:45;;;;;;;8.45;2.65;;;;;;;23.04;57.35;98991.53;2077255;28;20091;-54
2023/09/01 01:22:49;;;;;;;10.20;2.78;;;;;;;22.82;58.23;98999.22;2079248;28;20628;-51
2023/09/01 01:23:54;;;;;;;7.07;2.70;;;;;;;22.61;58.98;98986.91;2074351;28;20048;-51
2023/09/01 01:24:55;;;;;;;9.80;2.83;;;;;;;22.78;58.06;98992.59;2077518;28;20492;-51
2023/09/01 01:25:57;;;;;;;9.27;2.83;;;;;;;22.83;58.08;98993.56;2080312;28;20621;-54
2023/09/01 01:26:58;;;;;;;7.68;2.97;;;;;;;22.87;57.92;98997.50;2078512;28;20083;-52
2023/09/01 01:28:06;;;;;;;5.40;2.33;;;;;;;22.87;57.92;98992.09;2076596;28;20083;-50
2023/09/01 01:29:08;;;;;;;7.00;3.08;;;;;;;22.86;57.86;98990.44;2079124;28;20099;-49
2023/09/01 01:30:13;;;;;;;7.53;2.65;;;;;;;22.81;58.13;98995.66;2077374;28;20206;-51
2023/09/01 01:31:15;;;;;;;5.82;2.13;;;;;;;22.84;58.00;98997.09;2080645;28;20053;-53
2023/09/01 01:32:16;;;;;;;8.02;2.10;;;;;;;22.89;57.98;98994.56;2076178;28;20049;-55
2023/09/01 01:33:28;;;;;;;8.07;2.92;;;;;;;22.84;58.19;98997.94;2077572;28;20127;-52
2023/09/01 01:34:36;;;;;;;5.53;2.58;;;;;;;22.82;58.30;98996.53;2078267;28;21406;-51
2023/09/01 01:35:46;;;;;;;7.32;2.58;;;;;;;22.88;57.82;98988.34;2080459;28;20056;-53
2023/09/01 01:36:53;;;;;;;10.20;2.15;;;;;;;22.93;57.22;98990.38;2077529;28;20152;-55
2023/09/01 01:38:03;;;;;;;9.40;3.47;;;;;;;22.92;57.85;98996.81;2078478;28;20056;-49
2023/09/01 01:39:08;;;;;;;8.82;2.47;;;;;;;22.90;57.85;98988.94;2075891;28;20539;-54
2023/09/01 01:40:10;;;;;;;5.68;2.05;;;;;;;22.92;57.67;98991.41;2078132;28;20041;-51
2023/09/01 01:41:17;;;;;;;6.10;2.40;;;;;;;22.87;57.89;98988.53;2078356;28;20485;-52
2023/09/01 01:42:19;;;;;;;12.10;2.17;;;;;;;22.89;57.84;98987.28;2078773;28;20088;-51
2023/09/01 01:43:23;;;;;;;13.43;3.72;;;;;;;22.96;57.41;98995.38;2078766;28;20518;-53
2023/09/01 01:44:26;;;;;;;7.50;2.33;;;;;;;23.00;57.43;98990.34;2077518;28;20582;-49
2023/09/01 01:45:30;;;;;;;5.00;2.30;;;;;;;23.00;57.50;98990.34;2081364;28;20064;-51
2023/09/01 01:46:33;;;;;;;7.75;2.35;;;;;;;23.03;57.12;98998.81;2080435;28;20087;-52
2023/09/01 01:47:35;;;;;;;11.00;2.97;;;;;;;23.00;57.30;98993.03;2078930;28;20415;-53
2023/09/01 01:48:38;;;;;;;6.53;2.03;;;;;;;22.98;57.31;98995.94;2076237;28;20056;-53
2023/09/01 01:49:40;;;;;;;7.03;2.25;;;;;;;22.96;57.31;98995.38;2073607;28;20057;-50
2023/09/01 01:50:41;;;;;;;7.80;3.40;;;;;;;22.96;57.60;98993.50;2078207;28;20052;-51
2023/09/01 01:51:42;;;;;;;8.30;2.63;;;;;;;22.95;57.51;98989.09;2076373;28;20151;-49
2023/09/01 01:52:45;;;;;;;5.57;2.38;;;;;;;23.02;56.96;98990.94;2078737;28;20842;-53
2023/09/01 01:53:55;;;;;;;7.68;2.47;;;;;;;23.02;57.20;98988.25;2078995;28;20064;-52
2023/09/01 01:54:58;;;;;;;3.90;1.90;;;;;;;23.01;57.41;98994.69;2077269;28;20056;-50
2023/09/01 01:55:59;;;;;;;4.05;1.77;;;;;;;22.99;57.19;98988.69;2077484;28;20052;-53
2023/09/01 01:57:00;;;;;;;7.43;2.78;;;;;;;22.94;57.21;98992.84;2080075;28;20056;-52
2023/09/01 01:58:01;;;;;;;6.90;1.92;;;;;;;22.96;57.40;98988.06;2077565;28;20045;-54
2023/09/01 01:59:04;;;;;;;3.90;1.77;;;;;;;22.94;57.69;98990.13;2077688;28;20051;-52
2023/09/01 02:00:11;;;;;;;6.07;2.13;;;;;;;22.96;56.90;98992.66;2077471;28;20055;-53
2023/09/01 02:01:12;;;;;;;7.22;2.78;;;;;;;22.93;57.68;98991.19;2078541;28;20428;-53
2023/09/01 02:02:13;;;;;;;10.35;2.60;;;;;;;22.91;57.33;98987.06;2077417;28;20067;-55
2023/09/01 02:03:14;;;;;;;7.05;1.88;;;;;;;22.90;57.51;98985.38;2076344;28;20045;-56
2023/09/01 02:04:16;;;;;;;5.22;2.58;;;;;;;22.84;58.06;98978.19;2080273;28;20107;-56
2023/09/01 02:05:17;;;;;;;7.55;2.67;;;;;;;22.70;58.62;98985.59;2075915;28;20388;-50
2023/09/01 02:06:19;;;;;;;10.30;2.80;;;;;;;22.78;58.14;98987.19;2077188;28;20136;-51
2023/09/01 02:07:20;;;;;;;11.30;2.75;;;;;;;22.78;57.84;98982.59;2075266;28;20045;-48
2023/09/01 02:08:22;;;;;;;5.68;2.88;;;;;;;22.76;58.23;98979.28;2076106;28;20046;-51
2023/09/01 02:09:22;;;;;;;9.73;2.22;;;;;;;22.82;57.45;98975.72;2077565;28;20075;-52
2023/09/01 02:10:26;;;;;;;5.63;2.95;;;;;;;22.89;57.73;98981.88;2078599;28;20057;-50
2023/09/01 02:11:27;;;;;;;3.22;2.00;;;;;;;22.92;57.72;98980.59;2079141;28;20233;-50
2023/09/01 02:12:29;;;;;;;5.70;2.72;;;;;;;22.80;58.08;98969.69;2079310;28;20107;-49
2023/09/01 02:13:31;;;;;;;4.60;2.83;;;;;;;22.73;58.37;98980.59;2077551;28;20140;-50
2023/09/01 02:14:35;;;;;;;7.85;2.50;;;;;;;22.75;57.97;98972.22;2078820;28;20110;-51
2023/09/01 02:15:37;;;;;;;5.82;2.45;;;;;;;22.75;58.21;98978.47;2078784;28;21390;-49
2023/09/01 02:16:40;;;;;;;7.43;2.28;;;;;;;22.82;57.38;98973.00;2071144;28;20064;-51
2023/09/01 02:17:43;;;;;;;7.93;2.58;;;;;;;22.84;57.60;98964.66;2076548;28;20049;-50
2023/09/01 02:18:46;;;;;;;8.27;2.67;;;;;;;22.89;57.43;98971.03;2076942;28;24058;-54
2023/09/01 02:19:47;;;;;;;8.90;2.33;;;;;;;22.91;57.69;98966.25;2077793;28;20095;-54
2023/09/01 02:20:49;;;;;;;5.63;2.28;;;;;;;22.97;57.71;98964.56;2078460;28;20048;-52
2023/09/01 02:21:50;;;;;;;9.02;2.28;;;;;;;23.02;57.31;98974.72;2079598;28;20037;-55
2023/09/01 02:22:55;;;;;;;6.88;2.38;;;;;;;22.96;57.36;98976.44;2075455;28;20059;-55
2023/09/01 02:23:56;;;;;;;4.07;2.45;;;;;;;22.79;57.85;98972.59;2079144;28;20056;-52
2023/09/01 02:24:58;;;;;;;8.18;2.47;;;;;;;22.55;59.10;98975.13;2079469;28;20588;-51
2023/09/01 02:26:00;;;;;;;4.55;2.08;;;;;;;22.71;58.32;98973.72;2078116;28;20041;-55
2023/09/01 02:27:04;;;;;;;6.63;2.30;;;;;;;22.77;57.80;98964.72;2079944;28;20041;-53
2023/09/01 02:28:05;;;;;;;7.70;2.90;;;;;;;22.75;58.27;98964.13;2079182;28;20048;-54
2023/09/01 02:29:07;;;;;;;7.68;2.13;;;;;;;22.55;59.00;98971.59;2078024;28;20049;-54
2023/09/01 02:30:09;;;;;;;8.48;2.28;;;;;;;22.23;59.97;98966.22;2077659;28;20065;-51
2023/09/01 02:31:10;;;;;;;7.45;2.38;;;;;;;22.15;60.29;98974.56;2078333;28;20194;-50
2023/09/01 02:32:11;;;;;;;8.23;1.90;;;;;;;22.36;59.41;98965.28;2076086;28;20060;-50
2023/09/01 02:33:12;;;;;;;8.43;2.22;;;;;;;22.48;58.94;98969.78;2079167;28;20080;-50
2023/09/01 02:34:13;;;;;;;6.00;2.33;;;;;;;22.52;59.08;98975.56;2072781;28;20044;-49
2023/09/01 02:35:16;;;;;;;7.05;2.38;;;;;;;22.56;58.67;98974.06;2076759;28;20068;-49
2023/09/01 02:36:25;;;;;;;6.75;2.20;;;;;;;22.60;59.06;98979.88;2077222;28;20056;-48
2023/09/01 02:37:28;;;;;;;8.73;2.95;;;;;;;22.62;58.58;98978.59;2069047;28;20037;-50
2023/09/01 02:38:30;;;;;;;12.77;3.08;;;;;;;22.51;59.12;98971.19;2079083;28;20048;-49
2023/09/01 02:39:32;;;;;;;7.82;2.33;;;;;;;22.34;59.72;98973.59;2077733;28;20053;-50
2023/09/01 02:40:33;;;;;;;11.50;3.53;;;;;;;22.08;60.59;98969.19;2078956;28;20049;-49
2023/09/01 02:41:36;;;;;;;8.32;3.63;;;;;;;22.04;60.85;98974.22;2079704;28;20375;-48
2023/09/01 02:42:39;;;;;;;4.90;2.33;;;;;;;22.15;60.48;98971.84;2079214;28;20610;-49
2023/09/01 02:43:41;;;;;;;9.73;3.13;;;;;;;22.25;59.87;98969.53;2076259;28;20880;-48
2023/09/01 02:44:42;;;;;;;9.02;3.38;;;;;;;22.42;59.24;98967.94;2078425;28;20053;-50
2023/09/01 02:45:44;;;;;;;8.13;2.20;;;;;;;22.36;59.73;98971.53;2078166;28;20137;-52
2023/09/01 02:46:46;;;;;;;7.15;2.65;;;;;;;22.45;59.30;98972.06;2078124;28;20045;-52
2023/09/01 02:47:46;;;;;;;3.13;1.98;;;;;;;22.48;59.26;98972.47;2076237;28;20087;-54
2023/09/01 02:48:48;;;;;;;5.18;2.25;;;;;;;22.45;59.17;98978.31;2077875;28;20040;-53
2023/09/01 02:49:49;;;;;;;6.30;2.38;;;;;;;22.42;59.24;98973.34;2075449;28;20048;-52
2023/09/01 02:50:51;;;;;;;5.72;2.60;;;;;;;22.38;59.66;98966.72;2079041;28;20152;-54
2023/09/01 02:51:53;;;;;;;10.25;2.30;;;;;;;22.03;60.51;98974.44;2075919;28;20107;-55
2023/09/01 02:52:56;;;;;;;9.23;3.00;;;;;;;21.89;61.23;98983.66;2078775;28;20049;-53
2023/09/01 02:53:58;;;;;;;9.50;2.78;;;;;;;21.83;61.55;98972.69;2079568;28;20049;-54
2023/09/01 02:55:00;;;;;;;5.47;2.42;;;;;;;22.02;60.33;98979.00;2078665;28;20053;-50
2023/09/01 02:56:01;;;;;;;4.97;2.00;;;;;;;22.16;60.11;98974.34;2077877;28;20041;-52
2023/09/01 02:57:05;;;;;;;7.22;2.05;;;;;;;22.28;59.52;98972.59;2080520;28;20071;-53
2023/09/01 02:58:06;;;;;;;3.60;1.70;;;;;;;22.22;60.06;98978.91;2075428;28;20577;-49
2023/09/01 02:59:08;;;;;;;6.10;2.03;;;;;;;22.28;59.89;98978.00;2078949;28;20057;-49
2023/09/01 03:00:21;;;;;;;6.05;2.50;;;;;;;22.27;60.18;98973.66;2079783;28;20072;-53
2023/09/01 03:01:23;;;;;;;9.52;2.00;;;;;;;22.19;60.20;98978.50;2080513;28;20041;-52
2023/09/01 03:02:24;;;;;;;7.40;2.40;;;;;;;22.24;60.12;98976.00;2077306;28;20053;-53
2023/09/01 03:03:26;;;;;;;4.53;2.58;;;;;;;22.36;59.10;98970.69;2078567;28;20433;-53
2023/09/01 03:04:30;;;;;;;5.75;2.50;;;;;;;22.40;59.33;98970.06;2077105;28;20079;-51
2023/09/01 03:05:31;;;;;;;11.25;3.53;;;;;;;22.41;59.40;98969.00;2077120;28;20083;-55
2023/09/01 03:06:34;;;;;;;7.47;2.17;;;;;;;22.44;59.17;98973.94;2079106;28;20052;-52
2023/09/01 03:07:35;;;;;;;7.90;2.58;;;;;;;22.44;59.15;98973.13;2077000;28;20075;-52
2023/09/01 03:08:39;;;;;;;11.55;2.53;;;;;;;22.43;58.66;98968.78;2074767;28;20055;-55
2023/09/01 03:09:40;;;;;;;6.43;2.15;;;;;;;22.43;59.30;98972.31;2078764;28;20052;-52
2023/09/01 03:10:42;;;;;;;5.50;2.55;;;;;;;22.43;59.28;98971.50;2077085;28;20055;-55
2023/09/01 03:11:43;;;;;;;9.70;2.83;;;;;;;22.43;59.06;98964.19;2079712;28;20087;-53
2023/09/01 03:12:51;;;;;;;9.00;2.42;;;;;;;22.39;59.03;98965.66;2077940;28;20059;-49
2023/09/01 03:13:52;;;;;;;6.15;3.13;;;;;;;22.43;58.80;98966.09;2077483;28;20102;-54
2023/09/01 03:14:55;;;;;;;6.22;2.08;;;;;;;22.48;58.70;98969.78;2075842;28;20515;-56
2023/09/01 03:15:56;;;;;;;10.85;2.58;;;;;;;22.51;59.05;98965.78;2074221;28;20053;-52
2023/09/01 03:16:58;;;;;;;6.05;1.73;;;;;;;22.51;59.00;98963.94;2077774;28;21482;-51
2023/09/01 03:17:59;;;;;;;11.00;3.20;;;;;;;22.51;58.58;98973.88;2078683;28;20076;-51
2023/09/01 03:19:04;;;;;;;5.15;2.78;;;;;;;22.47;58.90;98962.69;2080420;28;20045;-49
2023/09/01 03:20:09;;;;;;;7.22;2.30;;;;;;;22.47;59.15;98965.41;2079492;28;20041;-53
2023/09/01 03:21:13;;;;;;;8.18;2.55;;;;;;;22.43;59.36;98969.59;2078040;28;20506;-50
2023/09/01 03:22:13;;;;;;;4.38;1.92;;;;;;;22.37;59.68;98966.94;2077047;28;20437;-52
2023/09/01 03:23:15;;;;;;;4.15;2.17;;;;;;;22.44;59.36;98970.44;2078233;28;20056;-52
2023/09/01 03:24:16;;;;;;;4.80;2.38;;;;;;;22.48;59.08;98967.06;2078375;28;20045;-53
2023/09/01 03:25:20;;;;;;;5.93;2.03;;;;;;;22.46;58.76;98971.03;2081298;28;20059;-52
2023/09/01 03:26:23;;;;;;;5.80;3.15;;;;;;;22.45;58.29;98969.38;2078082;28;20711;-50
2023/09/01 03:27:25;;;;;;;4.53;2.40;;;;;;;22.46;58.74;98969.16;2079856;28;20587;-51
2023/09/01 03:28:29;;;;;;;6.32;2.03;;;;;;;22.47;58.52;98965.41;2076910;28;20045;-50
2023/09/01 03:29:31;;;;;;;5.03;2.22;;;;;;;22.46;58.84;98968.34;2078666;28;20056;-54
2023/09/01 03:30:32;;;;;;;7.68;2.17;;;;;;;22.46;58.84;98969.16;2077418;28;20867;-51
2023/09/01 03:31:34;;;;;;;6.93;2.22;;;;;;;22.42;59.16;98967.94;2077132;28;20048;-52
2023/09/01 03:32:35;;;;;;;8.73;2.28;;;;;;;22.42;58.56;98967.94;2076219;28;20755;-50
2023/09/01 03:33:37;;;;;;;10.15;2.25;;;;;;;22.41;58.98;98971.69;2078348;28;20053;-52
2023/09/01 03:34:38;;;;;;;4.28;2.20;;;;;;;22.47;58.58;98970.81;2077628;28;21317;-55
2023/09/01 03:35:40;;;;;;;4.50;2.78;;;;;;;22.45;59.09;98974.78;2077561;28;20446;-53
2023/09/01 03:36:44;;;;;;;5.40;1.90;;;;;;;22.46;59.01;98973.75;2077875;28;20087;-53
2023/09/01 03:37:46;;;;;;;5.63;1.92;;;;;;;22.45;59.00;98966.66;2078723;28;20050;-51
2023/09/01 03:38:48;;;;;;;9.23;2.83;;;;;;;22.42;58.51;98970.63;2076757;28;20415;-49
2023/09/01 03:39:50;;;;;;;8.02;2.38;;;;;;;22.41;59.01;98969.00;2075841;28;20864;-50
2023/09/01 03:40:51;;;;;;;5.68;2.03;;;;;;;22.36;58.97;98968.81;2078286;28;20084;-49
2023/09/01 03:41:53;;;;;;;5.93;2.67;;;;;;;22.33;59.46;98969.25;2076117;28;20052;-49
2023/09/01 03:42:54;;;;;;;5.50;1.90;;;;;;;22.40;58.50;98975.47;2077885;28;20049;-49
2023/09/01 03:43:57;;;;;;;5.57;2.40;;;;;;;22.41;58.55;98968.16;2079293;28;20045;-50
2023/09/01 03:44:58;;;;;;;4.57;2.05;;;;;;;22.42;59.11;98972.50;2078988;28;20049;-50
2023/09/01 03:46:00;;;;;;;8.52;2.47;;;;;;;22.44;58.93;98971.25;2077316;28;20056;-53
2023/09/01 03:47:01;;;;;;;7.15;2.40;;;;;;;22.44;58.96;98975.84;2073446;28;20068;-52
2023/09/01 03:48:03;;;;;;;4.03;1.67;;;;;;;22.42;58.89;98972.50;2068384;28;20046;-50
2023/09/01 03:49:04;;;;;;;14.52;2.67;;;;;;;22.32;59.07;98981.13;2077771;28;20510;-52
2023/09/01 03:50:07;;;;;;;7.35;2.55;;;;;;;22.32;59.22;98977.59;2075320;28;20052;-52
2023/09/01 03:51:09;;;;;;;10.45;2.80;;;;;;;22.26;59.48;98979.31;2077056;28;20657;-53
2023/09/01 03:52:11;;;;;;;7.65;2.35;;;;;;;22.32;59.21;98981.13;2075030;28;20045;-53
2023/09/01 03:53:12;;;;;;;7.90;2.40;;;;;;;22.35;59.29;98980.69;2079075;28;20045;-53
2023/09/01 03:54:14;;;;;;;7.03;2.40;;;;;;;22.35;59.58;98980.69;2074868;28;20723;-55
2023/09/01 03:55:15;;;;;;;7.30;1.95;;;;;;;22.40;59.22;98980.88;2079214;28;20080;-51
2023/09/01 03:56:19;;;;;;;4.63;2.70;;;;;;;22.43;58.35;98975.00;2076402;28;20116;-53
2023/09/01 03:57:20;;;;;;;3.60;2.92;;;;;;;22.27;59.49;98975.56;2076836;28;20411;-55
2023/09/01 03:58:22;;;;;;;4.68;2.28;;;;;;;22.06;60.22;98985.66;2078117;28;20589;-50
2023/09/01 03:59:24;;;;;;;7.35;1.73;;;;;;;22.23;59.45;98980.56;2080372;28;20083;-51
2023/09/01 04:00:27;;;;;;;7.55;2.92;;;;;;;21.99;60.25;98987.53;2077807;28;20114;-53
2023/09/01 04:01:28;;;;;;;7.38;2.42;;;;;;;21.78;60.74;98988.69;2078176;28;20564;-52
2023/09/01 04:02:30;;;;;;;11.88;2.60;;;;;;;21.60;61.29;98986.72;2076993;28;20179;-50
2023/09/01 04:03:31;;;;;;;11.30;2.20;;;;;;;21.44;62.33;98980.97;2081524;28;20049;-53
2023/09/01 04:04:33;;;;;;;6.55;2.53;;;;;;;21.28;62.54;98987.63;2079575;28;20056;-51
2023/09/01 04:05:34;;;;;;;6.68;2.28;;;;;;;21.12;63.14;98992.47;2078440;28;20056;-49
2023/09/01 04:06:38;;;;;;;11.25;2.60;;;;;;;21.20;62.85;98986.84;2080410;28;20168;-51
2023/09/01 04:07:39;;;;;;;7.30;2.88;;;;;;;21.19;62.86;98989.72;2080533;28;20056;-48
2023/09/01 04:08:42;;;;;;;8.70;2.50;;;;;;;21.20;62.87;98984.13;2079789;28;20777;-50
2023/09/01 04:09:43;;;;;;;10.85;2.28;;;;;;;21.29;62.56;98986.59;2081135;28;20041;-49
2023/09/01 04:10:46;;;;;;;10.05;2.88;;;;;;;21.28;62.63;98991.16;2077667;28;20457;-52
2023/09/01 04:11:46;;;;;;;6.53;2.30;;;;;;;21.36;62.32;98993.63;2080136;28;20416;-52
2023/09/01 04:12:52;;;;;;;4.97;2.08;;;;;;;21.42;62.31;98991.97;2078829;28;20101;-50
2023/09/01 04:13:55;;;;;;;5.97;3.33;;;;;;;21.23;62.88;98988.28;2080927;28;20085;-51
2023/09/01 04:14:58;;;;;;;9.10;2.30;;;;;;;21.38;62.36;98990.75;2076838;28;20052;-50
2023/09/01 04:16:00;;;;;;;6.20;1.88;;;;;;;21.24;62.75;98987.22;2079387;28;20068;-51
2023/09/01 04:17:02;;;;;;;6.63;2.60;;;;;;;21.32;62.46;98992.41;2079070;28;20045;-51
2023/09/01 04:18:04;;;;;;;6.82;2.10;;;;;;;21.37;62.30;98992.63;2080840;28;20520;-50
2023/09/01 04:19:06;;;;;;;8.35;2.50;;;;;;;21.29;62.56;98986.59;2079210;28;20061;-51
2023/09/01 04:20:10;;;;;;;5.88;2.22;;;;;;;21.30;62.67;98996.34;2077731;28;20088;-49
2023/09/01 04:21:11;;;;;;;14.25;2.22;;;;;;;21.36;61.74;98995.50;2079397;28;20888;-55
2023/09/01 04:22:12;;;;;;;7.60;2.58;;;;;;;21.37;62.30;98998.03;2080030;28;20056;-56
2023/09/01 04:23:13;;;;;;;23.48;5.53;;;;;;;21.50;61.72;98999.81;2080330;28;20160;-49
2023/09/01 04:24:15;;;;;;;;;;;;;;;21.26;62.42;98995.13;2080789;28;20044;-50
2023/09/01 04:25:16;;;;;;;10.40;2.65;;;;;;;21.40;61.96;98999.47;2080184;28;19924;-50
2023/09/01 04:26:17;;;;;;;;;;;;;;;21.27;62.22;98997.59;2072186;28;20146;-49
2023/09/01 04:27:18;;;;;;;9.07;2.60;;;;;;;21.27;62.72;98999.47;2079744;28;19931;-51
2023/09/01 04:28:20;;;;;;;13.95;3.08;;;;;;;21.40;62.13;98996.78;2080495;28;20055;-59
2023/09/01 04:29:21;;;;;;;9.75;2.75;;;;;;;21.32;62.29;98995.09;2081836;28;20040;-50
2023/09/01 04:30:24;;;;;;;7.85;2.53;;;;;;;21.43;61.85;99001.75;2078775;28;20044;-52
2023/09/01 04:31:27;;;;;;;5.85;2.65;;;;;;;21.29;62.47;99006.31;2080856;28;20056;-52
2023/09/01 04:32:30;;;;;;;6.75;3.38;;;;;;;21.34;61.73;99002.97;2075922;28;20053;-55
2023/09/01 04:33:31;;;;;;;8.35;3.38;;;;;;;21.53;61.46;99007.50;2081077;28;20137;-53
2023/09/01 04:34:33;;;;;;;10.93;2.38;;;;;;;21.31;61.99;99008.78;2077676;28;20160;-52
2023/09/01 04:35:34;;;;;;;10.02;2.53;;;;;;;21.40;61.86;99000.28;2080719;28;20049;-55
2023/09/01 04:36:37;;;;;;;6.13;2.45;;;;;;;21.43;62.12;99001.75;2077304;28;20063;-55
2023/09/01 04:37:39;;;;;;;3.67;2.30;;;;;;;21.57;61.10;99003.34;2079743;28;21996;-55
2023/09/01 04:38:42;;;;;;;5.47;2.40;;;;;;;21.56;61.35;99004.38;2077355;28;20128;-51
2023/09/01 04:39:45;;;;;;;7.63;3.55;;;;;;;21.41;61.70;99003.81;2080596;28;21992;-51
2023/09/01 04:40:54;;;;;;;12.93;3.35;;;;;;;21.44;61.69;99002.56;2078392;28;20081;-51
2023/09/01 04:41:56;;;;;;;5.53;1.75;;;;;;;21.44;61.73;99007.97;2077841;28;20053;-49
2023/09/01 04:42:57;;;;;;;5.57;2.25;;;;;;;21.49;61.38;99005.44;2079132;28;20462;-49
2023/09/01 04:43:59;;;;;;;7.65;2.60;;;;;;;21.69;60.60;99005.38;2078064;28;20057;-53
2023/09/01 04:45:00;;;;;;;10.82;2.70;;;;;;;21.67;60.87;99007.44;2079657;28;20160;-54
2023/09/01 04:46:03;;;;;;;12.10;3.50;;;;;;;21.76;60.93;99014.28;2079227;28;20103;-53
2023/09/01 04:47:04;;;;;;;11.57;2.65;;;;;;;21.67;60.87;99005.56;2078078;28;20084;-54
2023/09/01 04:48:07;;;;;;;11.20;2.40;;;;;;;21.75;60.84;99004.50;2081512;28;20037;-53
2023/09/01 04:49:07;;;;;;;16.50;2.90;;;;;;;21.88;60.51;99004.44;2079583;28;20648;-56
2023/09/01 04:50:10;;;;;;;6.50;2.55;;;;;;;21.95;60.57;98999.81;2078334;28;20144;-51
2023/09/01 04:51:11;;;;;;;10.27;2.75;;;;;;;21.95;60.54;99002.50;2079439;28;20091;-56
2023/09/01 04:52:12;;;;;;;7.65;3.13;;;;;;;21.96;59.75;99001.50;2080121;28;20064;-51
2023/09/01 04:53:14;;;;;;;4.22;2.17;;;;;;;21.97;59.84;99005.00;2080138;28;20041;-56
2023/09/01 04:54:16;;;;;;;5.93;2.33;;;;;;;21.77;60.47;99013.22;2078077;28;20056;-51